Time;durP1;ratioP1;P1;durP2;ratioP2;P2;SDS_P1;SDS_P2;PMS_P1;PMS_P2;Temp;Humidity;BMP_temperature;BMP_pressure;BME280_temperature;BME280_humidity;BME280_pressure;Samples;Min_cycle;Max_cycle;Signal;HPM_P1;HPM_P2
2023/06/29 00:01:22;;;;;;;6.57;4.68;;;;;;;;;;5094741;28;20036;-83
2023/06/29 00:04:08;;;;;;;7.28;4.80;;;;;;;;;;5094488;28;20392;-82
2023/06/29 00:06:54;;;;;;;13.43;5.13;;;;;;;;;;5074677;28;20052;-82
2023/06/29 00:09:39;;;;;;;6.03;5.10;;;;;;;;;;5075055;28;20040;-82
2023/06/29 00:12:25;;;;;;;8.73;4.95;;;;;;;;;;5074873;28;20048;-82
2023/06/29 00:15:10;;;;;;;7.93;4.88;;;;;;;;;;5074219;28;20036;-82
2023/06/29 00:17:57;;;;;;;6.97;5.05;;;;;;;;;;5074128;28;20048;-84
2023/06/29 00:20:42;;;;;;;7.32;4.78;;;;;;;;;;5074572;28;20045;-81
2023/06/29 00:23:28;;;;;;;8.13;4.82;;;;;;;;;;5074291;28;20481;-81
2023/06/29 00:26:14;;;;;;;10.90;4.53;;;;;;;;;;5074283;28;20044;-81
2023/06/29 00:28:59;;;;;;;5.18;4.30;;;;;;;;;;5073922;28;20040;-81
2023/06/29 00:31:45;;;;;;;7.75;4.72;;;;;;;;;;5066302;28;20048;-83
2023/06/29 00:34:31;;;;;;;9.55;4.47;;;;;;;;;;5074115;28;20040;-83
2023/06/29 00:37:19;;;;;;;6.95;4.93;;;;;;;;;;5080587;28;20036;-81
2023/06/29 00:40:05;;;;;;;6.95;4.07;;;;;;;;;;5073899;28;20385;-82
2023/06/29 00:42:50;;;;;;;5.65;4.50;;;;;;;;;;5073995;28;20037;-82
2023/06/29 00:45:35;;;;;;;10.77;4.90;;;;;;;;;;5073952;28;20048;-82
2023/06/29 00:48:24;;;;;;;6.43;4.78;;;;;;;;;;5065900;28;20052;-81
2023/06/29 00:51:09;;;;;;;8.98;4.43;;;;;;;;;;5065564;28;20048;-82
2023/06/29 00:53:54;;;;;;;6.43;4.20;;;;;;;;;;5073776;28;20070;-84
2023/06/29 00:56:42;;;;;;;8.27;4.75;;;;;;;;;;5065526;28;20041;-83
2023/06/29 00:59:28;;;;;;;8.02;4.70;;;;;;;;;;5065640;28;20049;-82
2023/06/29 01:02:15;;;;;;;6.47;4.65;;;;;;;;;;5073891;28;20044;-83
2023/06/29 01:05:04;;;;;;;8.38;4.78;;;;;;;;;;5068163;28;20496;-83
2023/06/29 01:07:59;;;;;;;9.95;4.88;;;;;;;;;;5094143;28;20043;-83
2023/06/29 01:10:47;;;;;;;9.20;4.50;;;;;;;;;;5093759;28;20040;-83
2023/06/29 01:13:34;;;;;;;7.38;4.45;;;;;;;;;;5071183;28;20032;-82
2023/06/29 01:16:20;;;;;;;13.73;5.47;;;;;;;;;;5094173;28;20473;-82
2023/06/29 01:19:12;;;;;;;8.05;4.80;;;;;;;;;;5093711;28;20036;-82
2023/06/29 01:22:10;;;;;;;7.32;4.45;;;;;;;;;;5085600;28;20388;-82
2023/06/29 01:24:56;;;;;;;10.07;4.78;;;;;;;;;;5088027;28;20048;-82
2023/06/29 01:27:43;;;;;;;5.97;4.25;;;;;;;;;;5078988;28;20036;-82
2023/06/29 01:30:31;;;;;;;8.98;4.70;;;;;;;;;;5096427;28;20052;-82
2023/06/29 01:33:19;;;;;;;11.80;4.53;;;;;;;;;;5079098;28;20044;-82
2023/06/29 01:36:24;;;;;;;4.82;4.32;;;;;;;;;;5093508;28;20044;-82
2023/06/29 01:39:19;;;;;;;7.10;4.80;;;;;;;;;;5093461;28;20044;-81
2023/06/29 01:42:06;;;;;;;7.97;4.65;;;;;;;;;;5085217;28;20388;-83
2023/06/29 01:44:54;;;;;;;8.93;4.95;;;;;;;;;;5085008;28;20480;-81
2023/06/29 01:47:40;;;;;;;9.80;5.10;;;;;;;;;;5094517;28;20377;-81
2023/06/29 01:50:26;;;;;;;10.43;4.78;;;;;;;;;;5097904;28;20048;-80
2023/06/29 01:53:12;;;;;;;7.05;4.70;;;;;;;;;;5097572;28;20044;-81
2023/06/29 01:55:57;;;;;;;9.40;5.07;;;;;;;;;;5097310;28;20392;-80
2023/06/29 01:58:43;;;;;;;8.68;5.70;;;;;;;;;;5088821;28;20516;-80
2023/06/29 02:01:30;;;;;;;6.47;5.10;;;;;;;;;;5089462;28;20496;-80
2023/06/29 02:04:15;;;;;;;9.65;5.38;;;;;;;;;;5097309;28;20384;-81
2023/06/29 02:07:03;;;;;;;6.95;5.93;;;;;;;;;;5097115;28;20048;-81
2023/06/29 02:09:48;;;;;;;7.68;5.97;;;;;;;;;;5089067;28;20052;-82
2023/06/29 02:12:33;;;;;;;8.73;5.60;;;;;;;;;;5075231;28;20484;-82
2023/06/29 02:15:18;;;;;;;9.10;5.47;;;;;;;;;;5097235;28;20040;-80
2023/06/29 02:18:03;;;;;;;8.05;6.25;;;;;;;;;;5088990;28;20060;-81
2023/06/29 02:20:49;;;;;;;8.23;5.57;;;;;;;;;;5096892;28;20044;-81
2023/06/29 02:23:35;;;;;;;7.68;4.78;;;;;;;;;;5097024;28;20043;-81
2023/06/29 02:26:20;;;;;;;8.75;5.30;;;;;;;;;;5096870;28;20040;-81
2023/06/29 02:29:06;;;;;;;7.30;4.72;;;;;;;;;;5087548;28;20048;-81
2023/06/29 02:31:52;;;;;;;6.28;4.93;;;;;;;;;;5096355;28;20032;-82
2023/06/29 02:34:37;;;;;;;6.57;4.68;;;;;;;;;;5087932;28;20040;-81
2023/06/29 02:37:22;;;;;;;6.20;4.80;;;;;;;;;;5087996;28;20036;-80
2023/06/29 02:40:08;;;;;;;5.85;4.75;;;;;;;;;;5096593;28;20492;-81
2023/06/29 02:42:54;;;;;;;7.97;4.97;;;;;;;;;;5095852;28;20039;-81
2023/06/29 02:45:39;;;;;;;7.30;4.72;;;;;;;;;;5088015;28;20044;-81
2023/06/29 02:48:25;;;;;;;15.15;5.22;;;;;;;;;;5087714;28;20044;-81
2023/06/29 02:51:11;;;;;;;7.68;5.00;;;;;;;;;;5096698;28;20381;-80
2023/06/29 02:54:00;;;;;;;6.68;5.00;;;;;;;;;;5096333;28;20040;-80
2023/06/29 02:56:46;;;;;;;8.45;5.15;;;;;;;;;;5095929;28;20036;-81
2023/06/29 02:59:31;;;;;;;6.57;4.75;;;;;;;;;;5094903;28;20048;-81
2023/06/29 03:02:17;;;;;;;9.60;5.25;;;;;;;;;;5094112;28;20040;-80
2023/06/29 03:05:03;;;;;;;10.45;4.90;;;;;;;;;;5083649;28;20041;-80
2023/06/29 03:07:48;;;;;;;10.68;4.90;;;;;;;;;;5085553;28;20036;-80
2023/06/29 03:10:34;;;;;;;9.43;5.03;;;;;;;;;;5094489;28;20048;-80
2023/06/29 03:13:19;;;;;;;8.18;4.55;;;;;;;;;;5096182;28;20404;-80
2023/06/29 03:16:05;;;;;;;9.80;4.78;;;;;;;;;;5096046;28;20044;-81
2023/06/29 03:18:50;;;;;;;6.28;4.78;;;;;;;;;;5095201;28;20048;-80
2023/06/29 03:21:37;;;;;;;7.95;5.32;;;;;;;;;;5095138;28;20087;-80
2023/06/29 03:24:22;;;;;;;9.52;5.00;;;;;;;;;;5095878;28;20036;-80
2023/06/29 03:27:07;;;;;;;8.45;5.20;;;;;;;;;;5102970;28;20036;-81
2023/06/29 03:29:53;;;;;;;6.95;4.72;;;;;;;;;;5095453;28;20040;-80
2023/06/29 03:32:38;;;;;;;8.88;5.05;;;;;;;;;;5095372;28;20044;-80
2023/06/29 03:35:24;;;;;;;7.60;5.30;;;;;;;;;;5095858;28;20056;-80
2023/06/29 03:38:09;;;;;;;11.80;4.63;;;;;;;;;;5102012;28;20048;-80
2023/06/29 03:40:54;;;;;;;7.53;4.60;;;;;;;;;;5095821;28;20048;-80
2023/06/29 03:43:40;;;;;;;8.20;4.35;;;;;;;;;;5095327;28;20044;-80
2023/06/29 03:46:25;;;;;;;11.55;5.10;;;;;;;;;;5095311;28;20040;-80
2023/06/29 03:49:11;;;;;;;6.82;5.10;;;;;;;;;;5095064;28;20043;-80
2023/06/29 03:51:56;;;;;;;7.68;4.70;;;;;;;;;;5102011;28;20040;-81
2023/06/29 03:54:41;;;;;;;11.57;4.97;;;;;;;;;;5095782;28;20044;-81
2023/06/29 03:57:27;;;;;;;6.75;4.90;;;;;;;;;;5095210;28;20480;-80
2023/06/29 04:00:13;;;;;;;9.15;4.82;;;;;;;;;;5095147;28;20040;-80
2023/06/29 04:02:58;;;;;;;7.25;5.07;;;;;;;;;;5095137;28;20048;-80
2023/06/29 04:05:43;;;;;;;9.02;5.40;;;;;;;;;;5095667;28;20044;-84
2023/06/29 04:08:29;;;;;;;6.10;4.85;;;;;;;;;;5097353;28;20492;-82
2023/06/29 04:11:15;;;;;;;10.15;5.32;;;;;;;;;;5094005;28;20396;-81
2023/06/29 04:14:00;;;;;;;6.57;4.30;;;;;;;;;;5094664;28;20048;-79
2023/06/29 04:16:46;;;;;;;7.43;4.85;;;;;;;;;;5095056;28;20048;-80
2023/06/29 04:19:31;;;;;;;5.90;4.60;;;;;;;;;;5094753;28;20052;-79
2023/06/29 04:22:17;;;;;;;8.13;5.22;;;;;;;;;;5094179;28;20528;-79
2023/06/29 04:25:04;;;;;;;9.70;6.75;;;;;;;;;;5079754;28;20048;-79
2023/06/29 04:27:49;;;;;;;12.77;7.50;;;;;;;;;;5094265;28;20048;-79
2023/06/29 04:30:38;;;;;;;13.40;8.02;;;;;;;;;;5094939;28;20044;-79
2023/06/29 04:33:23;;;;;;;11.50;7.15;;;;;;;;;;5094407;28;20048;-79
2023/06/29 04:36:12;;;;;;;8.27;5.82;;;;;;;;;;5094289;28;20044;-80
2023/06/29 04:38:58;;;;;;;8.60;5.03;;;;;;;;;;5094305;28;20036;-80
2023/06/29 04:41:43;;;;;;;10.95;5.18;;;;;;;;;;5094224;28;20044;-79
2023/06/29 04:44:32;;;;;;;12.20;5.10;;;;;;;;;;5094036;28;20489;-83
2023/06/29 04:47:17;;;;;;;6.35;4.63;;;;;;;;;;5093483;28;20420;-80
2023/06/29 04:50:04;;;;;;;9.65;4.90;;;;;;;;;;5100049;28;20559;-81
2023/06/29 04:52:51;;;;;;;11.43;5.10;;;;;;;;;;5094134;28;20480;-80
2023/06/29 04:55:39;;;;;;;11.20;4.95;;;;;;;;;;5093882;28;20051;-81
2023/06/29 04:58:25;;;;;;;8.82;5.05;;;;;;;;;;5094446;28;20492;-82
2023/06/29 05:01:10;;;;;;;6.32;4.90;;;;;;;;;;5093489;28;20036;-81
2023/06/29 05:03:56;;;;;;;6.55;4.75;;;;;;;;;;5093831;28;20084;-81
2023/06/29 05:06:42;;;;;;;9.05;5.78;;;;;;;;;;5093437;28;20048;-82
2023/06/29 05:09:27;;;;;;;10.07;5.28;;;;;;;;;;5093373;28;20044;-81
2023/06/29 05:12:14;;;;;;;6.57;5.03;;;;;;;;;;5085036;28;20044;-83
2023/06/29 05:15:00;;;;;;;11.50;4.90;;;;;;;;;;5093489;28;20044;-81
2023/06/29 05:17:45;;;;;;;11.07;5.50;;;;;;;;;;5085524;28;20052;-79
2023/06/29 05:20:31;;;;;;;8.18;6.10;;;;;;;;;;5093341;28;20044;-82
2023/06/29 05:23:16;;;;;;;13.05;6.35;;;;;;;;;;5097240;28;20040;-81
2023/06/29 05:26:02;;;;;;;13.05;6.28;;;;;;;;;;5097526;28;20036;-83
2023/06/29 05:28:47;;;;;;;9.52;6.20;;;;;;;;;;5082574;28;20040;-80
2023/06/29 05:31:33;;;;;;;8.23;6.30;;;;;;;;;;5104773;28;20044;-80
2023/06/29 05:34:18;;;;;;;9.80;6.05;;;;;;;;;;5097711;28;20400;-80
2023/06/29 05:37:04;;;;;;;9.02;5.90;;;;;;;;;;5097660;28;20036;-81
2023/06/29 05:39:50;;;;;;;6.97;5.47;;;;;;;;;;5097645;28;20044;-79
2023/06/29 05:42:35;;;;;;;11.10;5.75;;;;;;;;;;5096014;28;20048;-80
2023/06/29 05:45:20;;;;;;;7.28;5.32;;;;;;;;;;5097920;28;20504;-80
2023/06/29 05:48:06;;;;;;;6.75;5.40;;;;;;;;;;5103863;28;20400;-79
2023/06/29 05:50:52;;;;;;;7.45;5.35;;;;;;;;;;5097467;28;20389;-80
2023/06/29 05:53:37;;;;;;;7.63;5.90;;;;;;;;;;5097284;28;20048;-79
2023/06/29 05:56:23;;;;;;;8.60;6.00;;;;;;;;;;5097520;28;20036;-80
2023/06/29 05:59:08;;;;;;;8.13;6.13;;;;;;;;;;5097564;28;20044;-81
2023/06/29 06:01:54;;;;;;;10.60;6.00;;;;;;;;;;5088114;28;20036;-80
2023/06/29 06:04:40;;;;;;;11.68;6.80;;;;;;;;;;5102618;28;20040;-80
2023/06/29 06:07:30;;;;;;;8.48;6.15;;;;;;;;;;5103307;28;20036;-79
2023/06/29 06:10:16;;;;;;;7.95;5.80;;;;;;;;;;5096755;28;20400;-81
2023/06/29 06:13:02;;;;;;;9.35;6.05;;;;;;;;;;5096792;28;20048;-79
2023/06/29 06:15:48;;;;;;;8.30;5.50;;;;;;;;;;5097081;28;20036;-82
2023/06/29 06:18:34;;;;;;;8.65;5.72;;;;;;;;;;5096879;28;20040;-80
2023/06/29 06:21:19;;;;;;;11.13;6.55;;;;;;;;;;5096835;28;20056;-81
2023/06/29 06:24:07;;;;;;;8.80;6.07;;;;;;;;;;5096192;28;20397;-81
2023/06/29 06:26:53;;;;;;;7.18;5.88;;;;;;;;;;5097009;28;20400;-82
2023/06/29 06:29:38;;;;;;;11.63;5.68;;;;;;;;;;5087767;28;20484;-80
2023/06/29 06:32:24;;;;;;;7.60;5.85;;;;;;;;;;5096379;28;20044;-80
2023/06/29 06:35:10;;;;;;;9.60;5.55;;;;;;;;;;5096140;28;20044;-81
2023/06/29 06:37:56;;;;;;;8.77;5.38;;;;;;;;;;5095718;28;20044;-80
2023/06/29 06:40:41;;;;;;;8.90;5.50;;;;;;;;;;5096556;28;20047;-82
2023/06/29 06:43:27;;;;;;;8.27;5.32;;;;;;;;;;5080974;28;20036;-78
2023/06/29 06:46:13;;;;;;;6.68;5.07;;;;;;;;;;5103199;28;20047;-79
2023/06/29 06:48:58;;;;;;;9.07;5.93;;;;;;;;;;5096411;28;20035;-79
2023/06/29 06:51:43;;;;;;;7.57;4.78;;;;;;;;;;5095981;28;20036;-81
2023/06/29 06:54:32;;;;;;;5.75;4.65;;;;;;;;;;5096132;28;20044;-82
2023/06/29 06:57:17;;;;;;;8.38;4.60;;;;;;;;;;5095763;28;20036;-81
2023/06/29 07:00:03;;;;;;;7.90;4.57;;;;;;;;;;5095994;28;20438;-81
2023/06/29 07:02:48;;;;;;;5.93;4.63;;;;;;;;;;5096205;28;20047;-81
2023/06/29 07:05:33;;;;;;;8.60;5.00;;;;;;;;;;5096055;28;20052;-82
2023/06/29 07:08:19;;;;;;;8.90;5.13;;;;;;;;;;5095653;28;20477;-82
2023/06/29 07:11:06;;;;;;;12.85;4.82;;;;;;;;;;5095405;28;20186;-81
2023/06/29 07:13:52;;;;;;;6.65;5.18;;;;;;;;;;5095426;28;20481;-81
2023/06/29 07:16:37;;;;;;;7.03;4.75;;;;;;;;;;5095390;28;20044;-81
2023/06/29 07:19:23;;;;;;;6.20;5.18;;;;;;;;;;5095899;28;20413;-80
2023/06/29 07:22:10;;;;;;;7.97;4.70;;;;;;;;;;5095823;28;20044;-80
2023/06/29 07:24:56;;;;;;;6.45;4.50;;;;;;;;;;5095758;28;20051;-81
2023/06/29 07:27:42;;;;;;;11.05;4.88;;;;;;;;;;5094961;28;20048;-83
2023/06/29 07:30:27;;;;;;;6.53;4.72;;;;;;;;;;5095021;28;20047;-81
2023/06/29 07:33:13;;;;;;;5.22;4.18;;;;;;;;;;5094988;28;20044;-83
2023/06/29 07:35:58;;;;;;;7.65;4.82;;;;;;;;;;5094959;28;20040;-82
2023/06/29 07:38:44;;;;;;;7.95;4.43;;;;;;;;;;5094810;28;20485;-82
2023/06/29 07:41:29;;;;;;;6.78;4.28;;;;;;;;;;5094809;28;20393;-82
2023/06/29 07:44:15;;;;;;;5.45;4.70;;;;;;;;;;5095037;28;20060;-82
2023/06/29 07:47:00;;;;;;;6.78;4.53;;;;;;;;;;5094203;28;20476;-82
2023/06/29 07:49:45;;;;;;;8.27;4.85;;;;;;;;;;5072315;28;20052;-82
2023/06/29 07:52:30;;;;;;;5.07;4.25;;;;;;;;;;5094890;28;20051;-83
2023/06/29 07:55:16;;;;;;;6.00;4.63;;;;;;;;;;5094976;28;20040;-81
2023/06/29 07:58:05;;;;;;;5.72;4.55;;;;;;;;;;5094373;28;20044;-84
2023/06/29 08:00:50;;;;;;;7.93;5.18;;;;;;;;;;5095140;28;20052;-83
2023/06/29 08:03:36;;;;;;;12.52;5.43;;;;;;;;;;5094795;28;20052;-83
2023/06/29 08:06:21;;;;;;;6.25;5.03;;;;;;;;;;5093938;28;20036;-83
2023/06/29 08:09:07;;;;;;;6.85;5.00;;;;;;;;;;5085842;28;20473;-83
2023/06/29 08:11:52;;;;;;;6.80;4.80;;;;;;;;;;5085140;28;20040;-83
2023/06/29 08:14:38;;;;;;;4.80;3.97;;;;;;;;;;5094744;28;20040;-81
2023/06/29 08:17:24;;;;;;;6.75;4.53;;;;;;;;;;5095512;28;20044;-84
2023/06/29 08:20:12;;;;;;;6.75;5.05;;;;;;;;;;5093869;28;20048;-82
2023/06/29 08:22:57;;;;;;;5.72;4.60;;;;;;;;;;5086067;28;20048;-83
2023/06/29 08:25:42;;;;;;;8.73;4.93;;;;;;;;;;5085805;28;20040;-84
2023/06/29 08:28:28;;;;;;;9.32;5.60;;;;;;;;;;5079525;28;20040;-85
2023/06/29 08:31:14;;;;;;;6.88;5.35;;;;;;;;;;5079061;28;20048;-81
2023/06/29 08:33:59;;;;;;;8.48;4.88;;;;;;;;;;5094412;28;20485;-80
2023/06/29 08:36:45;;;;;;;6.15;5.03;;;;;;;;;;5095423;28;20044;-81
2023/06/29 08:39:30;;;;;;;5.45;4.50;;;;;;;;;;5100540;28;20043;-82
2023/06/29 08:42:17;;;;;;;7.18;4.63;;;;;;;;;;5094790;28;20052;-83
2023/06/29 08:45:05;;;;;;;6.63;4.88;;;;;;;;;;5095076;28;20043;-82
2023/06/29 08:47:53;;;;;;;6.45;4.85;;;;;;;;;;5094352;28;20397;-81
2023/06/29 08:50:45;;;;;;;6.25;4.75;;;;;;;;;;5094150;28;20469;-81
2023/06/29 08:53:31;;;;;;;7.30;4.63;;;;;;;;;;5093717;28;20043;-82
2023/06/29 08:56:16;;;;;;;5.85;4.15;;;;;;;;;;5093579;28;20111;-82
2023/06/29 08:59:02;;;;;;;6.65;3.30;;;;;;;;;;5093772;28;20039;-81
2023/06/29 09:01:48;;;;;;;2.85;2.05;;;;;;;;;;5091478;28;20044;-79
2023/06/29 09:04:33;;;;;;;2.95;2.28;;;;;;;;;;5072453;28;20045;-80
2023/06/29 09:07:23;;;;;;;5.22;2.60;;;;;;;;;;5073654;28;20071;-82
2023/06/29 09:10:10;;;;;;;3.88;2.60;;;;;;;;;;5080034;28;20032;-81
2023/06/29 09:12:56;;;;;;;4.50;2.95;;;;;;;;;;5074446;28;20625;-83
2023/06/29 09:15:41;;;;;;;3.28;2.75;;;;;;;;;;5073777;28;20048;-83
2023/06/29 09:18:28;;;;;;;4.53;2.80;;;;;;;;;;5073364;28;20489;-81
2023/06/29 09:21:16;;;;;;;6.60;3.55;;;;;;;;;;5073817;28;20048;-82
2023/06/29 09:24:03;;;;;;;10.70;3.13;;;;;;;;;;5065189;28;20037;-79
2023/06/29 09:26:53;;;;;;;6.75;2.65;;;;;;;;;;5073694;28;20048;-77
2023/06/29 09:29:38;;;;;;;2.30;1.70;;;;;;;;;;5073216;28;20496;-78
2023/06/29 09:32:24;;;;;;;2.45;2.20;;;;;;;;;;5073106;28;20044;-78
2023/06/29 09:35:09;;;;;;;3.30;2.50;;;;;;;;;;5072042;28;20048;-79
2023/06/29 09:37:55;;;;;;;5.97;2.33;;;;;;;;;;5071959;28;20045;-79
2023/06/29 09:40:51;;;;;;;4.40;2.40;;;;;;;;;;5078603;28;20056;-79
2023/06/29 09:43:36;;;;;;;3.60;2.70;;;;;;;;;;5063782;28;20044;-82
2023/06/29 09:46:26;;;;;;;4.80;2.08;;;;;;;;;;5072188;28;20048;-84
2023/06/29 09:49:15;;;;;;;2.17;1.70;;;;;;;;;;5063698;28;20029;-78
2023/06/29 09:52:03;;;;;;;4.55;1.90;;;;;;;;;;5071785;28;20428;-79
2023/06/29 09:54:49;;;;;;;3.90;2.10;;;;;;;;;;5071243;28;20393;-79
2023/06/29 09:57:36;;;;;;;5.40;2.10;;;;;;;;;;5078453;28;20040;-79
2023/06/29 10:00:22;;;;;;;2.30;2.03;;;;;;;;;;5071834;28;20489;-80
2023/06/29 10:03:07;;;;;;;2.97;1.90;;;;;;;;;;5057050;28;20053;-79
2023/06/29 10:05:56;;;;;;;3.38;1.60;;;;;;;;;;5070618;28;20066;-80
2023/06/29 10:08:42;;;;;;;2.28;1.70;;;;;;;;;;5072818;28;20489;-77
2023/06/29 10:11:29;;;;;;;1.98;1.60;;;;;;;;;;5082357;28;20052;-79
2023/06/29 10:14:19;;;;;;;2.13;1.52;;;;;;;;;;5075365;28;20477;-78
2023/06/29 10:17:35;;;;;;;5.00;1.80;;;;;;;;;;5075391;28;20044;-78
2023/06/29 10:20:31;;;;;;;;;;;;;;;;;;5082417;28;20053;-80
2023/06/29 10:23:17;;;;;;;4.00;2.00;;;;;;;;;;5074171;28;19913;-78
2023/06/29 10:26:04;;;;;;;6.28;2.60;;;;;;;;;;5082038;28;20409;-79
2023/06/29 10:28:49;;;;;;;4.22;2.30;;;;;;;;;;5075196;28;20041;-79
2023/06/29 10:31:35;;;;;;;2.90;1.67;;;;;;;;;;5075045;28;20453;-80
2023/06/29 10:34:20;;;;;;;2.42;1.65;;;;;;;;;;5074508;28;20461;-79
2023/06/29 10:37:06;;;;;;;1.95;1.42;;;;;;;;;;5074983;28;20041;-78
2023/06/29 10:39:56;;;;;;;3.50;1.90;;;;;;;;;;5075031;28;20040;-77
2023/06/29 10:42:41;;;;;;;3.28;1.83;;;;;;;;;;5075074;28;20032;-77
2023/06/29 10:45:26;;;;;;;4.15;1.77;;;;;;;;;;5074199;28;20048;-81
2023/06/29 10:48:17;;;;;;;2.83;2.05;;;;;;;;;;5075443;28;20045;-80
2023/06/29 10:51:06;;;;;;;6.55;1.58;;;;;;;;;;5077634;28;20442;-78
2023/06/29 10:53:51;;;;;;;2.15;1.40;;;;;;;;;;5075343;28;20048;-81
2023/06/29 10:56:38;;;;;;;3.85;1.80;;;;;;;;;;5075001;28;20053;-81
2023/06/29 10:59:23;;;;;;;3.13;1.63;;;;;;;;;;5074989;28;20401;-80
2023/06/29 11:02:09;;;;;;;2.10;1.67;;;;;;;;;;5074628;28;20044;-79
2023/06/29 11:04:55;;;;;;;4.20;2.00;;;;;;;;;;5074276;28;20044;-80
2023/06/29 11:07:41;;;;;;;4.25;2.35;;;;;;;;;;5074351;28;20045;-80
2023/06/29 11:10:27;;;;;;;4.35;1.80;;;;;;;;;;5074232;28;20044;-80
2023/06/29 11:13:12;;;;;;;2.25;2.00;;;;;;;;;;5074503;28;20044;-79
2023/06/29 11:15:58;;;;;;;2.78;2.10;;;;;;;;;;5074281;28;20044;-80
2023/06/29 11:18:50;;;;;;;3.78;2.58;;;;;;;;;;5066106;28;20056;-80
2023/06/29 11:21:35;;;;;;;2.03;1.70;;;;;;;;;;5074146;28;20389;-80
2023/06/29 11:24:21;;;;;;;2.10;1.60;;;;;;;;;;5074017;28;20486;-80
2023/06/29 11:27:07;;;;;;;2.50;1.80;;;;;;;;;;5074319;28;20044;-79
2023/06/29 11:29:54;;;;;;;5.15;1.95;;;;;;;;;;5071988;28;20469;-79
2023/06/29 11:32:40;;;;;;;3.88;2.00;;;;;;;;;;5073759;28;20044;-82
2023/06/29 11:35:26;;;;;;;2.65;2.10;;;;;;;;;;5073852;28;20045;-81
2023/06/29 11:38:11;;;;;;;4.53;3.33;;;;;;;;;;5073834;28;20052;-80
2023/06/29 11:41:04;;;;;;;2.30;1.90;;;;;;;;;;5080707;28;20048;-79
2023/06/29 11:43:51;;;;;;;2.92;2.00;;;;;;;;;;5074005;28;20044;-81
2023/06/29 11:46:37;;;;;;;2.90;1.90;;;;;;;;;;5079784;28;20044;-80
2023/06/29 11:49:22;;;;;;;7.50;2.20;;;;;;;;;;5079984;28;20048;-79
2023/06/29 11:52:08;;;;;;;4.15;2.50;;;;;;;;;;5080423;28;20049;-79
2023/06/29 11:54:54;;;;;;;4.93;2.42;;;;;;;;;;5080480;28;20056;-85
2023/06/29 11:57:42;;;;;;;4.75;2.20;;;;;;;;;;5065991;28;20500;-85
2023/06/29 12:00:29;;;;;;;2.35;1.85;;;;;;;;;;5080778;28;20040;-81
2023/06/29 12:03:15;;;;;;;5.38;2.30;;;;;;;;;;5087822;28;20401;-81
2023/06/29 12:06:01;;;;;;;3.60;2.15;;;;;;;;;;5077293;28;20045;-82
2023/06/29 12:08:50;;;;;;;3.15;2.03;;;;;;;;;;5073244;28;20052;-85
2023/06/29 12:11:35;;;;;;;3.60;2.10;;;;;;;;;;5064731;28;20048;-84
2023/06/29 12:14:21;;;;;;;3.47;2.10;;;;;;;;;;5075175;28;20040;-83
2023/06/29 12:17:19;;;;;;;4.32;1.98;;;;;;;;;;5072241;28;20044;-83
2023/06/29 12:20:15;;;;;;;3.05;2.20;;;;;;;;;;5050074;28;20493;-81
2023/06/29 12:23:02;;;;;;;2.15;1.95;;;;;;;;;;5072509;28;20044;-83
2023/06/29 12:25:50;;;;;;;5.30;2.00;;;;;;;;;;5051097;28;20417;-84
2023/06/29 12:28:35;;;;;;;4.28;2.40;;;;;;;;;;5073238;28;20053;-84
2023/06/29 12:31:25;;;;;;;4.10;2.17;;;;;;;;;;5072762;28;20390;-84
2023/06/29 12:34:10;;;;;;;5.40;2.00;;;;;;;;;;5058335;28;20040;-83
2023/06/29 12:36:56;;;;;;;3.28;2.00;;;;;;;;;;5072771;28;20048;-82
2023/06/29 12:39:41;;;;;;;4.70;2.10;;;;;;;;;;5057672;28;20052;-83
2023/06/29 12:42:26;;;;;;;3.08;2.05;;;;;;;;;;5072677;28;20048;-83
2023/06/29 12:45:12;;;;;;;2.65;2.15;;;;;;;;;;5072221;28;20052;-83
2023/06/29 12:47:57;;;;;;;5.65;2.30;;;;;;;;;;5072553;28;20052;-83
2023/06/29 12:50:43;;;;;;;3.13;2.17;;;;;;;;;;5072420;28;20036;-83
2023/06/29 12:53:29;;;;;;;3.72;2.58;;;;;;;;;;5057278;28;20405;-83
2023/06/29 12:56:14;;;;;;;4.88;2.50;;;;;;;;;;5072263;28;20032;-82
2023/06/29 12:59:00;;;;;;;4.55;2.60;;;;;;;;;;5072682;28;20040;-82
2023/06/29 13:01:45;;;;;;;2.97;2.50;;;;;;;;;;5072012;28;20044;-83
2023/06/29 13:04:32;;;;;;;3.10;2.40;;;;;;;;;;5057089;28;20045;-82
2023/06/29 13:07:19;;;;;;;4.25;2.20;;;;;;;;;;5072387;28;20049;-84
2023/06/29 13:10:05;;;;;;;3.55;2.58;;;;;;;;;;5072476;28;20393;-82
2023/06/29 13:12:51;;;;;;;8.98;2.80;;;;;;;;;;5071732;28;20485;-84
2023/06/29 13:15:36;;;;;;;3.80;2.40;;;;;;;;;;5072439;28;20396;-81
2023/06/29 13:18:21;;;;;;;8.18;2.40;;;;;;;;;;5072381;28;20040;-82
2023/06/29 13:21:06;;;;;;;4.50;2.40;;;;;;;;;;5063636;28;20048;-82
2023/06/29 13:23:52;;;;;;;4.07;2.20;;;;;;;;;;5072613;28;20036;-82
2023/06/29 13:26:37;;;;;;;3.25;2.28;;;;;;;;;;5072491;28;20041;-83
2023/06/29 13:29:23;;;;;;;3.03;2.33;;;;;;;;;;5063662;28;20049;-83
2023/06/29 13:32:09;;;;;;;5.03;2.30;;;;;;;;;;5072673;28;20369;-85
2023/06/29 13:34:54;;;;;;;2.85;2.30;;;;;;;;;;5063563;28;20044;-84
2023/06/29 13:37:40;;;;;;;3.65;2.53;;;;;;;;;;5072085;28;20041;-83
2023/06/29 13:40:25;;;;;;;4.82;2.50;;;;;;;;;;5056846;28;20053;-82
2023/06/29 13:43:10;;;;;;;3.25;2.50;;;;;;;;;;5074045;28;20041;-83
2023/06/29 13:45:55;;;;;;;3.30;2.95;;;;;;;;;;5076305;28;20481;-83
2023/06/29 13:48:41;;;;;;;3.00;2.38;;;;;;;;;;5067527;28;20040;-83
2023/06/29 13:51:28;;;;;;;6.53;2.90;;;;;;;;;;5067724;28;20040;-84
2023/06/29 13:54:15;;;;;;;4.28;2.50;;;;;;;;;;5053554;28;20052;-83
2023/06/29 13:57:01;;;;;;;4.45;2.60;;;;;;;;;;5053599;28;20040;-84
2023/06/29 13:59:47;;;;;;;4.68;2.50;;;;;;;;;;5075767;28;20044;-83
2023/06/29 14:02:32;;;;;;;3.10;2.60;;;;;;;;;;5067284;28;20405;-83
2023/06/29 14:05:17;;;;;;;5.60;2.80;;;;;;;;;;5075368;28;20056;-84
2023/06/29 14:08:04;;;;;;;3.78;2.47;;;;;;;;;;5075687;28;20040;-84
2023/06/29 14:10:48;;;;;;;2.53;2.33;;;;;;;;;;5059569;28;20040;-84
2023/06/29 14:13:34;;;;;;;3.40;2.42;;;;;;;;;;5075904;28;20045;-84
2023/06/29 14:16:20;;;;;;;6.68;2.80;;;;;;;;;;5076724;28;20053;-82
2023/06/29 14:19:05;;;;;;;5.30;2.08;;;;;;;;;;5076245;28;20044;-83
2023/06/29 14:21:51;;;;;;;3.20;2.50;;;;;;;;;;5076403;28;20048;-83
2023/06/29 14:24:37;;;;;;;3.05;2.60;;;;;;;;;;5061719;28;20036;-83
2023/06/29 14:27:23;;;;;;;3.78;2.40;;;;;;;;;;5076932;28;20040;-82
2023/06/29 14:30:10;;;;;;;5.75;2.50;;;;;;;;;;5077022;28;20473;-82
2023/06/29 14:32:55;;;;;;;4.70;2.35;;;;;;;;;;5075932;28;20037;-81
2023/06/29 14:35:41;;;;;;;3.55;2.42;;;;;;;;;;5067647;28;20481;-82
2023/06/29 14:38:26;;;;;;;2.50;2.17;;;;;;;;;;5061062;28;20033;-83
2023/06/29 14:41:12;;;;;;;3.15;2.30;;;;;;;;;;5060982;28;20040;-83
2023/06/29 14:43:58;;;;;;;3.45;2.50;;;;;;;;;;5075986;28;20040;-83
2023/06/29 14:46:43;;;;;;;4.95;2.50;;;;;;;;;;5075939;28;20049;-81
2023/06/29 14:49:29;;;;;;;7.05;2.63;;;;;;;;;;5076174;28;20048;-85
2023/06/29 14:52:15;;;;;;;3.03;2.35;;;;;;;;;;5067819;28;20520;-84
2023/06/29 14:55:00;;;;;;;3.47;2.40;;;;;;;;;;5075653;28;20048;-81
2023/06/29 14:57:46;;;;;;;2.60;2.20;;;;;;;;;;5075932;28;20040;-84
2023/06/29 15:00:31;;;;;;;2.58;2.35;;;;;;;;;;5075444;28;20040;-84
2023/06/29 15:03:17;;;;;;;6.63;2.13;;;;;;;;;;5075379;28;20044;-80
2023/06/29 15:06:03;;;;;;;3.92;2.30;;;;;;;;;;5075003;28;20041;-80
2023/06/29 15:08:48;;;;;;;3.30;2.40;;;;;;;;;;5075862;28;20052;-79
2023/06/29 15:11:34;;;;;;;4.88;2.35;;;;;;;;;;5075773;28;20428;-79
2023/06/29 15:14:19;;;;;;;7.65;2.80;;;;;;;;;;5076350;28;20045;-83
2023/06/29 15:17:05;;;;;;;3.15;2.25;;;;;;;;;;5067562;28;20044;-83
2023/06/29 15:19:53;;;;;;;3.17;2.33;;;;;;;;;;5075470;28;20045;-80
2023/06/29 15:22:39;;;;;;;5.28;2.53;;;;;;;;;;5075176;28;20493;-83
2023/06/29 15:25:24;;;;;;;3.58;2.47;;;;;;;;;;5075372;28;20045;-83
2023/06/29 15:28:09;;;;;;;2.85;2.30;;;;;;;;;;5051723;28;20044;-83
2023/06/29 15:30:55;;;;;;;4.72;2.80;;;;;;;;;;5060471;28;20052;-84
2023/06/29 15:33:41;;;;;;;2.75;2.30;;;;;;;;;;5066591;28;20048;-80
2023/06/29 15:36:26;;;;;;;3.78;2.20;;;;;;;;;;5075027;28;20037;-81
2023/06/29 15:39:11;;;;;;;4.10;2.47;;;;;;;;;;5075074;28;20489;-81
2023/06/29 15:41:57;;;;;;;2.80;2.58;;;;;;;;;;5074848;28;20041;-81
2023/06/29 15:44:43;;;;;;;4.85;2.55;;;;;;;;;;5060441;28;20044;-81
2023/06/29 15:47:28;;;;;;;2.97;2.22;;;;;;;;;;5074473;28;20052;-81
2023/06/29 15:50:14;;;;;;;4.70;2.38;;;;;;;;;;5074820;28;20040;-83
2023/06/29 15:52:59;;;;;;;5.30;2.22;;;;;;;;;;5067596;28;20036;-83
2023/06/29 15:55:45;;;;;;;3.58;2.40;;;;;;;;;;5075089;28;20036;-78
2023/06/29 15:58:34;;;;;;;4.38;2.20;;;;;;;;;;5075361;28;20045;-78
2023/06/29 16:01:23;;;;;;;5.03;2.30;;;;;;;;;;5060414;28;20044;-80
2023/06/29 16:04:07;;;;;;;3.08;2.40;;;;;;;;;;5074419;28;20481;-80
2023/06/29 16:06:52;;;;;;;3.42;2.40;;;;;;;;;;5072798;28;20473;-81
2023/06/29 16:09:42;;;;;;;2.80;2.50;;;;;;;;;;5072705;28;20048;-79
2023/06/29 16:12:27;;;;;;;3.78;2.30;;;;;;;;;;5075100;28;20048;-80
2023/06/29 16:15:13;;;;;;;3.50;2.63;;;;;;;;;;5074249;28;20390;-80
2023/06/29 16:17:59;;;;;;;2.92;2.38;;;;;;;;;;5073927;28;20044;-80
2023/06/29 16:20:44;;;;;;;3.20;2.47;;;;;;;;;;5059346;28;20044;-79
2023/06/29 16:23:29;;;;;;;2.92;2.25;;;;;;;;;;5073365;28;20048;-79
2023/06/29 16:26:14;;;;;;;4.32;2.47;;;;;;;;;;5073978;28;20044;-80
2023/06/29 16:29:00;;;;;;;3.17;2.30;;;;;;;;;;5071824;28;20041;-80
2023/06/29 16:31:48;;;;;;;4.63;2.70;;;;;;;;;;5071763;28;20052;-81
2023/06/29 16:34:33;;;;;;;3.90;2.28;;;;;;;;;;5073252;28;20044;-79
2023/06/29 16:37:19;;;;;;;10.57;5.65;;;;;;;;;;5071616;28;20048;-81